sensor_id;sensor_type;location;lat;lon;timestamp;temperature;humidity
67974;DHT22;54756;51.140;6.952;2024-03-23T00:55:24;8.10;99.90
67974;DHT22;54756;51.140;6.952;2024-03-23T00:57:25;8.10;99.90
67974;DHT22;54756;51.140;6.952;2024-03-23T00:59:25;8.10;99.90
67974;DHT22;54756;51.140;6.952;2024-03-23T01:01:29;8.00;99.90
67974;DHT22;54756;51.140;6.952;2024-03-23T01:03:30;7.90;99.90
67974;DHT22;54756;51.140;6.952;2024-03-23T01:05:30;7.90;99.90
67974;DHT22;54756;51.140;6.952;2024-03-23T01:07:31;7.80;99.90
67974;DHT22;54756;51.140;6.952;2024-03-23T01:09:31;7.80;99.90
67974;DHT22;54756;51.140;6.952;2024-03-23T01:11:32;7.80;99.90
67974;DHT22;54756;51.140;6.952;2024-03-23T01:13:32;7.80;99.90
67974;DHT22;54756;51.140;6.952;2024-03-23T01:15:33;7.70;99.90
67974;DHT22;54756;51.140;6.952;2024-03-23T01:17:34;7.70;99.90
67974;DHT22;54756;51.140;6.952;2024-03-23T01:19:34;7.70;99.90
67974;DHT22;54756;51.140;6.952;2024-03-23T01:21:35;7.70;99.90
67974;DHT22;54756;51.140;6.952;2024-03-23T01:23:36;7.60;99.90
67974;DHT22;54756;51.140;6.952;2024-03-23T01:25:36;7.60;99.90
67974;DHT22;54756;51.140;6.952;2024-03-23T01:27:37;7.60;99.90
67974;DHT22;54756;51.140;6.952;2024-03-23T01:29:37;7.60;99.90
67974;DHT22;54756;51.140;6.952;2024-03-23T01:31:39;7.60;99.90
67974;DHT22;54756;51.140;6.952;2024-03-23T01:33:39;7.60;99.90
67974;DHT22;54756;51.140;6.952;2024-03-23T01:35:40;7.50;99.90
67974;DHT22;54756;51.140;6.952;2024-03-23T01:37:41;7.50;99.90
67974;DHT22;54756;51.140;6.952;2024-03-23T01:39:41;7.50;99.90
67974;DHT22;54756;51.140;6.952;2024-03-23T01:41:42;7.40;99.90
67974;DHT22;54756;51.140;6.952;2024-03-23T01:43:43;7.50;99.90
67974;DHT22;54756;51.140;6.952;2024-03-23T01:45:43;7.40;99.90
67974;DHT22;54756;51.140;6.952;2024-03-23T01:47:44;7.40;99.90
67974;DHT22;54756;51.140;6.952;2024-03-23T01:49:44;7.40;99.90
67974;DHT22;54756;51.140;6.952;2024-03-23T01:51:45;7.40;99.90
67974;DHT22;54756;51.140;6.952;2024-03-23T01:53:46;7.40;99.90
67974;DHT22;54756;51.140;6.952;2024-03-23T01:55:47;7.40;99.90
67974;DHT22;54756;51.140;6.952;2024-03-23T01:57:48;7.40;99.90
67974;DHT22;54756;51.140;6.952;2024-03-23T01:59:49;7.40;99.90
67974;DHT22;54756;51.140;6.952;2024-03-23T02:01:49;7.40;99.90
67974;DHT22;54756;51.140;6.952;2024-03-23T02:03:50;7.40;99.90
67974;DHT22;54756;51.140;6.952;2024-03-23T02:05:51;7.30;99.90
67974;DHT22;54756;51.140;6.952;2024-03-23T02:07:52;7.30;99.90
67974;DHT22;54756;51.140;6.952;2024-03-23T02:09:53;7.30;99.90
67974;DHT22;54756;51.140;6.952;2024-03-23T02:11:54;7.30;99.90
67974;DHT22;54756;51.140;6.952;2024-03-23T02:13:55;7.20;99.90
67974;DHT22;54756;51.140;6.952;2024-03-23T02:15:55;7.20;99.90
67974;DHT22;54756;51.140;6.952;2024-03-23T02:17:56;7.10;99.90
67974;DHT22;54756;51.140;6.952;2024-03-23T02:19:56;7.10;99.90
67974;DHT22;54756;51.140;6.952;2024-03-23T02:21:57;7.00;99.90
67974;DHT22;54756;51.140;6.952;2024-03-23T02:23:59;7.00;99.90
67974;DHT22;54756;51.140;6.952;2024-03-23T02:26:00;6.90;99.90
67974;DHT22;54756;51.140;6.952;2024-03-23T02:28:00;6.90;99.90
67974;DHT22;54756;51.140;6.952;2024-03-23T02:30:01;6.90;99.90
67974;DHT22;54756;51.140;6.952;2024-03-23T02:32:02;6.80;99.90
67974;DHT22;54756;51.140;6.952;2024-03-23T02:34:02;6.80;99.90
67974;DHT22;54756;51.140;6.952;2024-03-23T02:36:03;6.80;99.90
67974;DHT22;54756;51.140;6.952;2024-03-23T02:38:04;6.70;99.90
67974;DHT22;54756;51.140;6.952;2024-03-23T02:40:05;6.70;99.90
67974;DHT22;54756;51.140;6.952;2024-03-23T02:42:05;6.70;99.90
67974;DHT22;54756;51.140;6.952;2024-03-23T02:44:40;6.70;99.90
67974;DHT22;54756;51.140;6.952;2024-03-23T02:46:41;6.70;99.90
67974;DHT22;54756;51.140;6.952;2024-03-23T02:48:41;6.70;99.90
67974;DHT22;54756;51.140;6.952;2024-03-23T02:50:42;6.60;99.90
67974;DHT22;54756;51.140;6.952;2024-03-23T02:52:42;6.70;99.90
67974;DHT22;54756;51.140;6.952;2024-03-23T02:54:43;6.60;99.90
67974;DHT22;54756;51.140;6.952;2024-03-23T02:56:45;6.60;99.90
67974;DHT22;54756;51.140;6.952;2024-03-23T02:58:45;6.70;99.90
67974;DHT22;54756;51.140;6.952;2024-03-23T03:00:46;6.70;99.90
67974;DHT22;54756;51.140;6.952;2024-03-23T03:02:46;6.70;99.90
67974;DHT22;54756;51.140;6.952;2024-03-23T03:04:47;6.70;99.90
67974;DHT22;54756;51.140;6.952;2024-03-23T03:06:48;6.70;99.90
67974;DHT22;54756;51.140;6.952;2024-03-23T03:08:49;6.70;99.90
67974;DHT22;54756;51.140;6.952;2024-03-23T03:10:50;6.70;99.90
67974;DHT22;54756;51.140;6.952;2024-03-23T03:12:50;6.70;99.90
67974;DHT22;54756;51.140;6.952;2024-03-23T03:14:51;6.70;99.90
67974;DHT22;54756;51.140;6.952;2024-03-23T03:16:51;6.70;99.90
67974;DHT22;54756;51.140;6.952;2024-03-23T03:18:52;6.70;99.90
67974;DHT22;54756;51.140;6.952;2024-03-23T03:20:54;6.70;99.90
67974;DHT22;54756;51.140;6.952;2024-03-23T03:22:55;6.70;99.90
67974;DHT22;54756;51.140;6.952;2024-03-23T03:24:55;6.70;99.90
67974;DHT22;54756;51.140;6.952;2024-03-23T03:26:56;6.70;99.90
67974;DHT22;54756;51.140;6.952;2024-03-23T03:28:58;6.70;99.90
67974;DHT22;54756;51.140;6.952;2024-03-23T03:30:59;6.70;99.90
67974;DHT22;54756;51.140;6.952;2024-03-23T03:33:00;6.70;99.90
67974;DHT22;54756;51.140;6.952;2024-03-23T03:35:00;6.70;99.90
67974;DHT22;54756;51.140;6.952;2024-03-23T03:37:01;6.70;99.90
67974;DHT22;54756;51.140;6.952;2024-03-23T03:39:01;6.70;99.90
67974;DHT22;54756;51.140;6.952;2024-03-23T03:41:05;6.70;99.90
67974;DHT22;54756;51.140;6.952;2024-03-23T03:43:06;6.70;99.90
67974;DHT22;54756;51.140;6.952;2024-03-23T03:45:07;6.70;99.90
67974;DHT22;54756;51.140;6.952;2024-03-23T03:47:08;6.70;99.90
67974;DHT22;54756;51.140;6.952;2024-03-23T03:49:11;6.70;99.90
67974;DHT22;54756;51.140;6.952;2024-03-23T03:51:12;6.70;99.90
67974;DHT22;54756;51.140;6.952;2024-03-23T03:53:12;6.70;99.90
67974;DHT22;54756;51.140;6.952;2024-03-23T03:55:14;6.60;99.90
67974;DHT22;54756;51.140;6.952;2024-03-23T03:57:15;6.60;99.90
67974;DHT22;54756;51.140;6.952;2024-03-23T03:59:15;6.70;99.90
67974;DHT22;54756;51.140;6.952;2024-03-23T04:01:16;6.70;99.90
67974;DHT22;54756;51.140;6.952;2024-03-23T04:03:16;6.70;99.90
67974;DHT22;54756;51.140;6.952;2024-03-23T04:05:17;6.60;99.90
67974;DHT22;54756;51.140;6.952;2024-03-23T04:07:17;6.60;99.90
67974;DHT22;54756;51.140;6.952;2024-03-23T04:09:18;6.60;99.90
67974;DHT22;54756;51.140;6.952;2024-03-23T04:11:19;6.60;99.90
67974;DHT22;54756;51.140;6.952;2024-03-23T04:13:19;6.60;99.90
67974;DHT22;54756;51.140;6.952;2024-03-23T04:15:20;6.60;99.90
67974;DHT22;54756;51.140;6.952;2024-03-23T04:17:20;6.60;99.90
67974;DHT22;54756;51.140;6.952;2024-03-23T04:19:21;6.60;99.90
67974;DHT22;54756;51.140;6.952;2024-03-23T04:21:22;6.60;99.90
67974;DHT22;54756;51.140;6.952;2024-03-23T04:23:23;6.60;99.90
67974;DHT22;54756;51.140;6.952;2024-03-23T04:25:23;6.60;99.90
67974;DHT22;54756;51.140;6.952;2024-03-23T04:27:24;6.60;99.90
67974;DHT22;54756;51.140;6.952;2024-03-23T04:29:25;6.60;99.90
67974;DHT22;54756;51.140;6.952;2024-03-23T04:31:27;6.60;99.90
67974;DHT22;54756;51.140;6.952;2024-03-23T04:33:27;6.60;99.90
67974;DHT22;54756;51.140;6.952;2024-03-23T04:35:28;6.60;99.90
67974;DHT22;54756;51.140;6.952;2024-03-23T04:37:28;6.60;99.90
67974;DHT22;54756;51.140;6.952;2024-03-23T04:39:29;6.60;99.90
67974;DHT22;54756;51.140;6.952;2024-03-23T04:41:29;6.60;99.90
67974;DHT22;54756;51.140;6.952;2024-03-23T04:43:30;6.60;99.90
67974;DHT22;54756;51.140;6.952;2024-03-23T04:45:30;6.60;99.90
67974;DHT22;54756;51.140;6.952;2024-03-23T04:47:31;6.60;99.90
67974;DHT22;54756;51.140;6.952;2024-03-23T04:49:32;6.60;99.90
67974;DHT22;54756;51.140;6.952;2024-03-23T04:51:36;6.60;99.90
67974;DHT22;54756;51.140;6.952;2024-03-23T04:53:42;6.60;99.90
67974;DHT22;54756;51.140;6.952;2024-03-23T04:55:43;6.60;99.90
67974;DHT22;54756;51.140;6.952;2024-03-23T04:57:44;6.50;99.90
67974;DHT22;54756;51.140;6.952;2024-03-23T04:59:44;6.50;99.90
67974;DHT22;54756;51.140;6.952;2024-03-23T05:01:45;6.60;99.90
67974;DHT22;54756;51.140;6.952;2024-03-23T05:03:45;6.50;99.90
67974;DHT22;54756;51.140;6.952;2024-03-23T05:05:46;6.50;99.90
67974;DHT22;54756;51.140;6.952;2024-03-23T05:07:46;6.50;99.90
67974;DHT22;54756;51.140;6.952;2024-03-23T05:09:47;6.50;99.90
67974;DHT22;54756;51.140;6.952;2024-03-23T05:11:49;6.50;99.90
67974;DHT22;54756;51.140;6.952;2024-03-23T05:13:49;6.50;99.90
67974;DHT22;54756;51.140;6.952;2024-03-23T05:15:53;6.50;99.90
67974;DHT22;54756;51.140;6.952;2024-03-23T05:17:54;6.50;99.90
67974;DHT22;54756;51.140;6.952;2024-03-23T05:19:55;6.50;99.90
67974;DHT22;54756;51.140;6.952;2024-03-23T05:21:55;6.50;99.90
67974;DHT22;54756;51.140;6.952;2024-03-23T05:23:56;6.50;99.90
67974;DHT22;54756;51.140;6.952;2024-03-23T05:25:56;6.50;99.90
67974;DHT22;54756;51.140;6.952;2024-03-23T05:27:57;6.50;99.90
67974;DHT22;54756;51.140;6.952;2024-03-23T05:29:57;6.40;99.90
67974;DHT22;54756;51.140;6.952;2024-03-23T05:31:58;6.40;99.90
67974;DHT22;54756;51.140;6.952;2024-03-23T05:33:58;6.40;99.90
67974;DHT22;54756;51.140;6.952;2024-03-23T05:36:01;6.40;99.90
67974;DHT22;54756;51.140;6.952;2024-03-23T05:38:01;6.40;99.90
67974;DHT22;54756;51.140;6.952;2024-03-23T05:40:03;6.40;99.90
67974;DHT22;54756;51.140;6.952;2024-03-23T05:42:04;6.40;99.90
67974;DHT22;54756;51.140;6.952;2024-03-23T05:44:04;6.40;99.90
67974;DHT22;54756;51.140;6.952;2024-03-23T05:46:05;6.30;99.90
67974;DHT22;54756;51.140;6.952;2024-03-23T05:48:06;6.30;99.90
67974;DHT22;54756;51.140;6.952;2024-03-23T05:50:08;6.30;99.90
67974;DHT22;54756;51.140;6.952;2024-03-23T05:52:10;6.30;99.90
67974;DHT22;54756;51.140;6.952;2024-03-23T05:54:11;6.30;99.90
67974;DHT22;54756;51.140;6.952;2024-03-23T05:56:11;6.40;99.90
67974;DHT22;54756;51.140;6.952;2024-03-23T05:58:12;6.40;99.90
67974;DHT22;54756;51.140;6.952;2024-03-23T06:00:13;6.40;99.90
67974;DHT22;54756;51.140;6.952;2024-03-23T06:02:16;6.40;99.90
67974;DHT22;54756;51.140;6.952;2024-03-23T06:04:16;6.40;99.90
67974;DHT22;54756;51.140;6.952;2024-03-23T06:06:17;6.40;99.90
67974;DHT22;54756;51.140;6.952;2024-03-23T06:08:18;6.40;99.90
67974;DHT22;54756;51.140;6.952;2024-03-23T06:10:18;6.50;99.90
67974;DHT22;54756;51.140;6.952;2024-03-23T06:12:19;6.50;99.90
67974;DHT22;54756;51.140;6.952;2024-03-23T06:14:21;6.40;99.90
67974;DHT22;54756;51.140;6.952;2024-03-23T06:16:22;6.40;99.90
67974;DHT22;54756;51.140;6.952;2024-03-23T06:18:25;6.50;99.90
67974;DHT22;54756;51.140;6.952;2024-03-23T06:20:26;6.50;99.90
67974;DHT22;54756;51.140;6.952;2024-03-23T06:22:27;6.50;99.90
67974;DHT22;54756;51.140;6.952;2024-03-23T06:24:27;6.50;99.90
67974;DHT22;54756;51.140;6.952;2024-03-23T06:26:28;6.50;99.90
67974;DHT22;54756;51.140;6.952;2024-03-23T06:28:29;6.50;99.90
67974;DHT22;54756;51.140;6.952;2024-03-23T06:30:29;6.60;99.90
67974;DHT22;54756;51.140;6.952;2024-03-23T06:32:30;6.50;99.90
67974;DHT22;54756;51.140;6.952;2024-03-23T06:34:30;6.50;99.90
67974;DHT22;54756;51.140;6.952;2024-03-23T06:36:31;6.50;99.90
67974;DHT22;54756;51.140;6.952;2024-03-23T06:38:32;6.50;99.90
67974;DHT22;54756;51.140;6.952;2024-03-23T06:40:32;6.40;99.90
67974;DHT22;54756;51.140;6.952;2024-03-23T06:42:33;6.40;99.90
67974;DHT22;54756;51.140;6.952;2024-03-23T06:44:33;6.40;99.90
67974;DHT22;54756;51.140;6.952;2024-03-23T06:46:34;6.40;99.90
67974;DHT22;54756;51.140;6.952;2024-03-23T06:48:34;6.40;99.90
67974;DHT22;54756;51.140;6.952;2024-03-23T06:50:35;6.30;99.90
67974;DHT22;54756;51.140;6.952;2024-03-23T06:52:36;6.30;99.90
67974;DHT22;54756;51.140;6.952;2024-03-23T06:54:36;6.30;99.90
67974;DHT22;54756;51.140;6.952;2024-03-23T06:56:37;6.30;99.90
67974;DHT22;54756;51.140;6.952;2024-03-23T06:58:37;6.30;99.90
67974;DHT22;54756;51.140;6.952;2024-03-23T07:00:38;6.30;99.90
67974;DHT22;54756;51.140;6.952;2024-03-23T07:02:38;6.30;99.90
67974;DHT22;54756;51.140;6.952;2024-03-23T07:04:39;6.30;99.90
67974;DHT22;54756;51.140;6.952;2024-03-23T07:06:43;6.30;99.90
67974;DHT22;54756;51.140;6.952;2024-03-23T07:08:44;6.30;99.90
67974;DHT22;54756;51.140;6.952;2024-03-23T07:10:45;6.40;99.90
67974;DHT22;54756;51.140;6.952;2024-03-23T07:12:45;6.40;99.90
67974;DHT22;54756;51.140;6.952;2024-03-23T07:14:46;6.40;99.90
67974;DHT22;54756;51.140;6.952;2024-03-23T07:16:46;6.40;99.90
67974;DHT22;54756;51.140;6.952;2024-03-23T07:18:47;6.50;99.90
67974;DHT22;54756;51.140;6.952;2024-03-23T07:22:54;6.50;99.90
67974;DHT22;54756;51.140;6.952;2024-03-23T07:24:55;6.50;99.90
67974;DHT22;54756;51.140;6.952;2024-03-23T07:26:55;6.50;99.90
67974;DHT22;54756;51.140;6.952;2024-03-23T07:28:58;6.60;99.90
67974;DHT22;54756;51.140;6.952;2024-03-23T07:33:02;6.60;99.90
67974;DHT22;54756;51.140;6.952;2024-03-23T07:35:02;6.70;99.90
67974;DHT22;54756;51.140;6.952;2024-03-23T07:37:04;6.70;99.90
67974;DHT22;54756;51.140;6.952;2024-03-23T07:39:05;6.70;99.90
67974;DHT22;54756;51.140;6.952;2024-03-23T07:41:08;6.80;99.90
67974;DHT22;54756;51.140;6.952;2024-03-23T07:43:09;6.90;99.90
67974;DHT22;54756;51.140;6.952;2024-03-23T07:45:09;6.90;99.90
67974;DHT22;54756;51.140;6.952;2024-03-23T07:47:10;6.90;99.90
67974;DHT22;54756;51.140;6.952;2024-03-23T07:49:11;6.90;99.90
67974;DHT22;54756;51.140;6.952;2024-03-23T07:51:17;7.00;99.90
67974;DHT22;54756;51.140;6.952;2024-03-23T07:53:17;7.00;99.90
67974;DHT22;54756;51.140;6.952;2024-03-23T07:55:18;7.00;99.90
67974;DHT22;54756;51.140;6.952;2024-03-23T07:57:18;7.10;99.90
67974;DHT22;54756;51.140;6.952;2024-03-23T07:59:19;7.10;99.90
67974;DHT22;54756;51.140;6.952;2024-03-23T08:01:20;7.20;99.90
67974;DHT22;54756;51.140;6.952;2024-03-23T08:03:20;7.20;99.90
67974;DHT22;54756;51.140;6.952;2024-03-23T08:05:21;7.20;99.90
67974;DHT22;54756;51.140;6.952;2024-03-23T08:07:21;7.30;99.90
67974;DHT22;54756;51.140;6.952;2024-03-23T08:09:22;7.30;99.90
67974;DHT22;54756;51.140;6.952;2024-03-23T08:11:23;7.40;99.90
67974;DHT22;54756;51.140;6.952;2024-03-23T08:13:23;7.40;99.90
67974;DHT22;54756;51.140;6.952;2024-03-23T08:15:24;7.40;99.90
67974;DHT22;54756;51.140;6.952;2024-03-23T08:17:24;7.40;99.90
67974;DHT22;54756;51.140;6.952;2024-03-23T08:19:25;7.50;99.90
67974;DHT22;54756;51.140;6.952;2024-03-23T08:21:25;7.50;99.90
67974;DHT22;54756;51.140;6.952;2024-03-23T08:23:33;7.60;99.90
67974;DHT22;54756;51.140;6.952;2024-03-23T08:25:35;7.60;99.90
67974;DHT22;54756;51.140;6.952;2024-03-23T08:27:35;7.70;99.90
67974;DHT22;54756;51.140;6.952;2024-03-23T08:29:36;7.70;99.90
67974;DHT22;54756;51.140;6.952;2024-03-23T08:31:37;7.80;99.90
67974;DHT22;54756;51.140;6.952;2024-03-23T08:33:38;7.80;99.90
67974;DHT22;54756;51.140;6.952;2024-03-23T08:35:39;7.90;99.90
67974;DHT22;54756;51.140;6.952;2024-03-23T08:37:40;7.90;99.90
67974;DHT22;54756;51.140;6.952;2024-03-23T08:39:43;7.90;99.90
67974;DHT22;54756;51.140;6.952;2024-03-23T08:41:43;8.00;99.90
67974;DHT22;54756;51.140;6.952;2024-03-23T08:43:46;8.00;99.90
67974;DHT22;54756;51.140;6.952;2024-03-23T08:45:47;8.10;99.90
67974;DHT22;54756;51.140;6.952;2024-03-23T08:47:47;8.10;99.90
67974;DHT22;54756;51.140;6.952;2024-03-23T08:49:48;8.20;99.90
67974;DHT22;54756;51.140;6.952;2024-03-23T08:51:48;8.20;99.90
67974;DHT22;54756;51.140;6.952;2024-03-23T08:53:49;8.30;99.90
67974;DHT22;54756;51.140;6.952;2024-03-23T08:55:59;8.30;99.90
67974;DHT22;54756;51.140;6.952;2024-03-23T08:58:01;8.40;99.90
67974;DHT22;54756;51.140;6.952;2024-03-23T09:00:02;8.40;99.90
67974;DHT22;54756;51.140;6.952;2024-03-23T09:02:03;8.50;99.90
67974;DHT22;54756;51.140;6.952;2024-03-23T09:04:04;8.50;99.90
67974;DHT22;54756;51.140;6.952;2024-03-23T09:06:12;8.60;99.90
67974;DHT22;54756;51.140;6.952;2024-03-23T09:08:13;8.60;99.90
67974;DHT22;54756;51.140;6.952;2024-03-23T09:10:14;8.70;99.90
67974;DHT22;54756;51.140;6.952;2024-03-23T09:12:14;8.70;99.90
67974;DHT22;54756;51.140;6.952;2024-03-23T09:14:15;8.70;99.90
67974;DHT22;54756;51.140;6.952;2024-03-23T09:16:15;8.70;99.70
67974;DHT22;54756;51.140;6.952;2024-03-23T09:18:16;8.70;99.70
67974;DHT22;54756;51.140;6.952;2024-03-23T09:20:16;8.70;99.50
67974;DHT22;54756;51.140;6.952;2024-03-23T09:22:17;8.70;98.90
67974;DHT22;54756;51.140;6.952;2024-03-23T09:24:18;8.70;99.50
67974;DHT22;54756;51.140;6.952;2024-03-23T09:26:18;8.70;99.90
67974;DHT22;54756;51.140;6.952;2024-03-23T09:28:19;8.70;99.80
67974;DHT22;54756;51.140;6.952;2024-03-23T09:30:19;8.70;99.10
67974;DHT22;54756;51.140;6.952;2024-03-23T09:32:20;8.70;99.50
67974;DHT22;54756;51.140;6.952;2024-03-23T09:34:20;8.70;99.60
67974;DHT22;54756;51.140;6.952;2024-03-23T09:36:21;8.60;98.70
67974;DHT22;54756;51.140;6.952;2024-03-23T09:38:22;8.60;98.20
67974;DHT22;54756;51.140;6.952;2024-03-23T09:40:23;8.50;96.40
67974;DHT22;54756;51.140;6.952;2024-03-23T09:42:24;8.50;97.70
67974;DHT22;54756;51.140;6.952;2024-03-23T09:44:25;8.50;98.50
67974;DHT22;54756;51.140;6.952;2024-03-23T09:46:26;8.60;98.90
67974;DHT22;54756;51.140;6.952;2024-03-23T09:48:28;8.70;99.10
67974;DHT22;54756;51.140;6.952;2024-03-23T09:50:30;8.70;98.40
67974;DHT22;54756;51.140;6.952;2024-03-23T09:52:30;8.70;98.10
67974;DHT22;54756;51.140;6.952;2024-03-23T09:54:31;8.70;97.80
67974;DHT22;54756;51.140;6.952;2024-03-23T09:56:32;8.80;98.00
67974;DHT22;54756;51.140;6.952;2024-03-23T09:58:33;8.80;98.60
67974;DHT22;54756;51.140;6.952;2024-03-23T10:00:37;8.90;98.20
67974;DHT22;54756;51.140;6.952;2024-03-23T10:02:37;8.90;97.80
67974;DHT22;54756;51.140;6.952;2024-03-23T10:04:39;9.00;98.10
67974;DHT22;54756;51.140;6.952;2024-03-23T10:06:40;9.10;95.70
67974;DHT22;54756;51.140;6.952;2024-03-23T10:08:40;9.10;92.90
67974;DHT22;54756;51.140;6.952;2024-03-23T10:10:41;9.10;91.30
67974;DHT22;54756;51.140;6.952;2024-03-23T10:12:49;9.10;91.70
67974;DHT22;54756;51.140;6.952;2024-03-23T10:14:52;9.10;91.60
67974;DHT22;54756;51.140;6.952;2024-03-23T10:16:53;9.10;92.70
67974;DHT22;54756;51.140;6.952;2024-03-23T10:18:55;9.00;93.20
67974;DHT22;54756;51.140;6.952;2024-03-23T10:21:08;9.00;94.00
67974;DHT22;54756;51.140;6.952;2024-03-23T10:23:17;8.90;93.00
67974;DHT22;54756;51.140;6.952;2024-03-23T10:25:22;8.80;90.40
67974;DHT22;54756;51.140;6.952;2024-03-23T10:27:22;8.80;86.40
67974;DHT22;54756;51.140;6.952;2024-03-23T10:29:23;8.80;89.10
67974;DHT22;54756;51.140;6.952;2024-03-23T10:31:23;8.80;88.70
67974;DHT22;54756;51.140;6.952;2024-03-23T10:33:24;8.90;88.90
67974;DHT22;54756;51.140;6.952;2024-03-23T10:35:25;8.90;87.00
67974;DHT22;54756;51.140;6.952;2024-03-23T10:37:25;8.90;85.50
67974;DHT22;54756;51.140;6.952;2024-03-23T10:39:26;8.90;85.30
67974;DHT22;54756;51.140;6.952;2024-03-23T10:41:28;8.90;89.10
67974;DHT22;54756;51.140;6.952;2024-03-23T10:43:31;8.80;89.70
67974;DHT22;54756;51.140;6.952;2024-03-23T10:45:33;8.70;90.30
67974;DHT22;54756;51.140;6.952;2024-03-23T10:47:37;8.60;92.30
67974;DHT22;54756;51.140;6.952;2024-03-23T10:49:38;8.50;92.80
67974;DHT22;54756;51.140;6.952;2024-03-23T10:51:38;8.50;93.60
67974;DHT22;54756;51.140;6.952;2024-03-23T10:53:39;8.50;93.50
67974;DHT22;54756;51.140;6.952;2024-03-23T10:55:41;8.50;93.00
67974;DHT22;54756;51.140;6.952;2024-03-23T10:57:45;8.50;92.60
67974;DHT22;54756;51.140;6.952;2024-03-23T10:59:48;8.50;91.30
67974;DHT22;54756;51.140;6.952;2024-03-23T11:01:59;8.50;90.00
67974;DHT22;54756;51.140;6.952;2024-03-23T11:04:00;8.40;88.70
67974;DHT22;54756;51.140;6.952;2024-03-23T11:06:01;8.30;89.00
67974;DHT22;54756;51.140;6.952;2024-03-23T11:08:03;8.20;89.70
67974;DHT22;54756;51.140;6.952;2024-03-23T11:10:25;8.10;88.90
67974;DHT22;54756;51.140;6.952;2024-03-23T11:12:27;8.00;88.40
67974;DHT22;54756;51.140;6.952;2024-03-23T11:14:32;7.80;85.90
67974;DHT22;54756;51.140;6.952;2024-03-23T11:16:33;7.60;83.80
67974;DHT22;54756;51.140;6.952;2024-03-23T11:18:36;7.50;87.10
67974;DHT22;54756;51.140;6.952;2024-03-23T11:20:36;7.30;90.50
67974;DHT22;54756;51.140;6.952;2024-03-23T11:22:44;7.20;91.10
67974;DHT22;54756;51.140;6.952;2024-03-23T11:24:50;7.10;92.10
67974;DHT22;54756;51.140;6.952;2024-03-23T11:26:50;7.00;93.10
67974;DHT22;54756;51.140;6.952;2024-03-23T11:29:09;7.00;94.00
67974;DHT22;54756;51.140;6.952;2024-03-23T11:31:10;7.00;94.90
67974;DHT22;54756;51.140;6.952;2024-03-23T11:33:12;7.00;95.60
67974;DHT22;54756;51.140;6.952;2024-03-23T11:37:28;7.00;96.30
67974;DHT22;54756;51.140;6.952;2024-03-23T11:39:29;7.10;96.50
67974;DHT22;54756;51.140;6.952;2024-03-23T11:41:29;7.20;96.70
67974;DHT22;54756;51.140;6.952;2024-03-23T11:43:30;7.20;96.60
67974;DHT22;54756;51.140;6.952;2024-03-23T11:45:35;7.30;96.60
67974;DHT22;54756;51.140;6.952;2024-03-23T11:47:36;7.40;96.00
67974;DHT22;54756;51.140;6.952;2024-03-23T11:49:36;7.50;97.20
67974;DHT22;54756;51.140;6.952;2024-03-23T11:51:41;7.60;97.10
67974;DHT22;54756;51.140;6.952;2024-03-23T11:53:41;7.80;96.20
67974;DHT22;54756;51.140;6.952;2024-03-23T11:55:50;7.90;95.20
67974;DHT22;54756;51.140;6.952;2024-03-23T11:57:51;8.00;94.60
67974;DHT22;54756;51.140;6.952;2024-03-23T11:59:51;8.20;94.90
67974;DHT22;54756;51.140;6.952;2024-03-23T12:01:52;8.30;94.20
67974;DHT22;54756;51.140;6.952;2024-03-23T12:03:53;8.40;94.20
67974;DHT22;54756;51.140;6.952;2024-03-23T12:05:58;8.60;94.80
67974;DHT22;54756;51.140;6.952;2024-03-23T12:08:22;8.80;94.60
67974;DHT22;54756;51.140;6.952;2024-03-23T12:10:24;8.90;95.30
67974;DHT22;54756;51.140;6.952;2024-03-23T12:12:24;9.10;94.70
67974;DHT22;54756;51.140;6.952;2024-03-23T12:14:25;9.30;94.60
67974;DHT22;54756;51.140;6.952;2024-03-23T12:16:26;9.30;79.10
67974;DHT22;54756;51.140;6.952;2024-03-23T12:18:28;9.10;72.70
67974;DHT22;54756;51.140;6.952;2024-03-23T12:20:28;8.90;75.60
67974;DHT22;54756;51.140;6.952;2024-03-23T12:22:29;8.50;78.50
67974;DHT22;54756;51.140;6.952;2024-03-23T12:24:32;8.10;80.90
67974;DHT22;54756;51.140;6.952;2024-03-23T12:26:36;7.80;85.50
67974;DHT22;54756;51.140;6.952;2024-03-23T12:28:38;7.60;89.60
67974;DHT22;54756;51.140;6.952;2024-03-23T12:30:39;7.40;91.10
67974;DHT22;54756;51.140;6.952;2024-03-23T12:32:40;7.30;91.50
67974;DHT22;54756;51.140;6.952;2024-03-23T12:34:40;7.20;91.70
67974;DHT22;54756;51.140;6.952;2024-03-23T12:36:41;7.10;92.60
67974;DHT22;54756;51.140;6.952;2024-03-23T12:38:42;7.10;94.00
67974;DHT22;54756;51.140;6.952;2024-03-23T12:40:48;7.10;95.30
67974;DHT22;54756;51.140;6.952;2024-03-23T12:42:48;7.10;95.10
67974;DHT22;54756;51.140;6.952;2024-03-23T12:44:49;7.00;94.30
67974;DHT22;54756;51.140;6.952;2024-03-23T12:46:50;7.00;93.80
67974;DHT22;54756;51.140;6.952;2024-03-23T12:48:50;6.90;93.50
67974;DHT22;54756;51.140;6.952;2024-03-23T12:50:54;6.70;93.40
67974;DHT22;54756;51.140;6.952;2024-03-23T12:52:55;6.60;93.70
67974;DHT22;54756;51.140;6.952;2024-03-23T12:54:56;6.50;94.80
67974;DHT22;54756;51.140;6.952;2024-03-23T12:56:57;6.40;96.10
67974;DHT22;54756;51.140;6.952;2024-03-23T12:58:57;6.40;97.30
67974;DHT22;54756;51.140;6.952;2024-03-23T13:00:58;6.60;98.40
67974;DHT22;54756;51.140;6.952;2024-03-23T13:02:59;6.80;99.70
67974;DHT22;54756;51.140;6.952;2024-03-23T13:04:59;7.00;99.90
67974;DHT22;54756;51.140;6.952;2024-03-23T13:07:00;7.30;99.90
67974;DHT22;54756;51.140;6.952;2024-03-23T13:09:01;7.50;99.90
67974;DHT22;54756;51.140;6.952;2024-03-23T13:11:02;7.90;99.90
67974;DHT22;54756;51.140;6.952;2024-03-23T13:13:03;8.30;99.90
67974;DHT22;54756;51.140;6.952;2024-03-23T13:15:05;8.80;99.90
67974;DHT22;54756;51.140;6.952;2024-03-23T13:17:06;9.20;97.40
67974;DHT22;54756;51.140;6.952;2024-03-23T13:19:07;9.60;97.40
67974;DHT22;54756;51.140;6.952;2024-03-23T13:21:07;10.00;93.70
67974;DHT22;54756;51.140;6.952;2024-03-23T13:23:08;10.40;89.20
67974;DHT22;54756;51.140;6.952;2024-03-23T13:25:09;10.60;82.20
67974;DHT22;54756;51.140;6.952;2024-03-23T13:27:09;10.80;82.60
67974;DHT22;54756;51.140;6.952;2024-03-23T13:29:11;11.00;78.80
67974;DHT22;54756;51.140;6.952;2024-03-23T13:31:11;11.10;75.60
67974;DHT22;54756;51.140;6.952;2024-03-23T13:33:12;11.20;80.60
67974;DHT22;54756;51.140;6.952;2024-03-23T13:35:13;11.20;69.50
67974;DHT22;54756;51.140;6.952;2024-03-23T13:37:13;11.10;60.50
67974;DHT22;54756;51.140;6.952;2024-03-23T13:39:14;10.80;52.80
67974;DHT22;54756;51.140;6.952;2024-03-23T13:41:15;10.60;56.10
67974;DHT22;54756;51.140;6.952;2024-03-23T13:43:16;10.40;58.10
67974;DHT22;54756;51.140;6.952;2024-03-23T13:45:17;10.30;58.60
67974;DHT22;54756;51.140;6.952;2024-03-23T13:47:17;10.10;59.60
67974;DHT22;54756;51.140;6.952;2024-03-23T13:49:29;10.00;57.80
67974;DHT22;54756;51.140;6.952;2024-03-23T13:51:30;9.80;63.50
67974;DHT22;54756;51.140;6.952;2024-03-23T13:53:31;9.60;67.40
67974;DHT22;54756;51.140;6.952;2024-03-23T13:55:33;9.40;69.60
67974;DHT22;54756;51.140;6.952;2024-03-23T13:57:33;9.30;73.50
67974;DHT22;54756;51.140;6.952;2024-03-23T13:59:34;9.20;76.70